Oosterdam — PBKH — position and weather

sailwx.info

Track history (hours):
 
Tides and Currents Weather Stations Pressure Air Temp Water Temp Dewpoint Dewpoint Depression Visibility Wind Speed Wind Dir Waves Ship Positions

Oosterdam

Operator: Holland America Line

Last reported at 2017-Sep-26 03:30 UTC. Time now 2017-Sep-26 04:00 UTC.
Position N 49°17' W 123°07'.

Type: Passenger vessel. MMSI: 245417000.

Date/timePositionNaut miles runAvg speedWind from/ knotsBaromVisibWave heightAir tempDewpointWater temp
2017-Sep-26 03:30N 49°17' W 123°07'0 0.0
2017-Sep-26 03:00N 49°17' W 123°07'0 0.0
2017-Sep-26 02:30N 49°17' W 123°07'0 0.0
2017-Sep-26 02:00N 49°17' W 123°07'0 0.0
2017-Sep-26 01:30N 49°17' W 123°07'0 0.0
2017-Sep-26 01:00N 49°17' W 123°07'0 0.0
2017-Sep-26 00:30N 49°17' W 123°07'0 0.0
2017-Sep-26 00:00N 49°17' W 123°07'0 0.0
2017-Sep-25 23:30N 49°17' W 123°07'0 0.0
2017-Sep-25 23:00N 49°17' W 123°07'0 0.0
2017-Sep-25 22:30N 49°17' W 123°07'0 0.0
2017-Sep-25 22:00N 49°17' W 123°07'0 0.0
2017-Sep-25 21:30N 49°17' W 123°07'0 0.0
2017-Sep-25 21:00N 49°17' W 123°07'0 0.0
2017-Sep-25 20:30N 49°17' W 123°07'0 0.0
2017-Sep-25 20:00N 49°17' W 123°07'0 0.0
2017-Sep-25 19:30N 49°17' W 123°07'0 0.0
2017-Sep-25 19:00N 49°17' W 123°07'0 0.0
2017-Sep-25 18:30N 49°17' W 123°07'0 0.0
2017-Sep-25 18:00N 49°17' W 123°07'0 0.0
2017-Sep-25 17:30N 49°17' W 123°07'0 0.0
2017-Sep-25 17:00N 49°17' W 123°07'0 0.0
2017-Sep-25 16:30N 49°17' W 123°07'0 0.0
2017-Sep-25 16:00N 49°17' W 123°07'0 0.0
2017-Sep-25 15:30N 49°17' W 123°07'0 0.0
2017-Sep-25 15:00N 49°17' W 123°07'0 0.0
2017-Sep-25 14:30N 49°17' W 123°07'0 0.0
2017-Sep-25 14:00N 49°17' W 123°07'0 0.4
2017-Sep-25 13:30N 49°18' W 123°07'4 7.4
2017-Sep-25 13:01N 49°19' W 123°12'918.4
2017-Sep-25 12:31N 49°18' W 123°26'815.5
2017-Sep-25 12:01N 49°19' W 123°38'3 6.5
2017-Sep-25 11:31N 49°16' W 123°39'611.5
2017-Sep-25 11:01N 49°12' W 123°33'611.5
2017-Sep-25 10:31N 49°07' W 123°27'816.0
2017-Sep-25 10:00N 49°02' W 123°18'918.0
2017-Sep-25 09:30N 48°56' W 123°08'816.9
2017-Sep-25 09:00N 48°49' W 122°60'714.8
2017-Sep-25 08:30N 48°44' W 123°08'613.0
2017-Sep-25 08:00N 48°40' W 123°15'815.6
2017-Sep-25 07:30N 48°32' W 123°12'714.7
2017-Sep-25 07:00N 48°25' W 123°12'714.7
2017-Sep-25 06:30N 48°22' W 123°22'4 8.3
2017-Sep-25 06:00N 48°18' W 123°25'3 6.1
2017-Sep-25 05:30N 48°16' W 123°27'2 3.2
2017-Sep-25 05:00N 48°14' W 123°28'2 3.4
2017-Sep-25 04:30N 48°13' W 123°27'2 3.3
2017-Sep-25 04:00N 48°12' W 123°25'5 9.7
2017-Sep-25 03:31N 48°10' W 123°18'918.3
2017-Sep-25 03:00N 48°13' W 123°05'918.5
2017-Sep-25 02:31N 48°12' W 122°51'917.1
2017-Sep-25 02:00N 48°08' W 122°40'917.6
2017-Sep-25 01:30N 47°59' W 122°36'917.4
2017-Sep-25 01:00N 47°52' W 122°28'918.8
2017-Sep-25 00:30N 47°43' W 122°27'612.0
2017-Sep-25 00:01N 47°37' W 122°23'0 0.7
2017-Sep-24 23:30N 47°38' W 122°23'0 0.0
2017-Sep-24 23:00N 47°38' W 122°23'0 0.0
2017-Sep-24 22:30N 47°38' W 122°23'0 0.0
2017-Sep-24 22:00N 47°38' W 122°23'0 0.0
2017-Sep-24 21:30N 47°38' W 122°23'0 0.0
2017-Sep-24 21:00N 47°38' W 122°23'0 0.0
2017-Sep-24 20:29N 47°38' W 122°23'0 0.0
2017-Sep-24 20:00N 47°38' W 122°23'0 0.0
2017-Sep-24 19:30N 47°38' W 122°23'0 0.0
2017-Sep-24 19:00N 47°38' W 122°23'0 0.0
2017-Sep-24 18:30N 47°38' W 122°23'0 0.0
2017-Sep-24 18:00N 47°38' W 122°23'0 0.0
2017-Sep-24 17:30N 47°38' W 122°23'0 0.0
2017-Sep-24 17:00N 47°38' W 122°23'0 0.0
2017-Sep-24 16:30N 47°38' W 122°23'0 0.0
2017-Sep-24 16:00N 47°38' W 122°23'0 0.0
2017-Sep-24 15:30N 47°38' W 122°23'0 0.0
2017-Sep-24 15:00N 47°38' W 122°23'0 0.0
2017-Sep-24 14:30N 47°38' W 122°23'0 0.0
2017-Sep-24 14:00N 47°38' W 122°23'0 0.0
2017-Sep-24 13:30N 47°38' W 122°23'0 0.3
2017-Sep-24 13:01N 47°38' W 122°23'2 4.7
2017-Sep-24 12:31N 47°38' W 122°27'713.3
2017-Sep-24 12:01N 47°45' W 122°27'714.5
2017-Sep-24 11:31N 47°52' W 122°29'713.7
2017-Sep-24 11:01N 47°57' W 122°34'714.0
2017-Sep-24 10:30N 48°04' W 122°39'713.7
2017-Sep-24 10:00N 48°09' W 122°45'715.1
2017-Sep-24 09:30N 48°11' W 122°56'815.4
2017-Sep-24 09:00N 48°12' W 123°08'613.0
2017-Sep-24 08:30N 48°11' W 123°17'612.6
2017-Sep-24 08:00N 48°11' W 123°27'611.8
2017-Sep-24 07:30N 48°16' W 123°29'815.1
2017-Sep-24 07:00N 48°23' W 123°25'2 3.6
2017-Sep-24 06:28N 48°25' W 123°23'0 0.0
2017-Sep-24 05:58N 48°25' W 123°23'0 0.0
2017-Sep-24 05:28N 48°25' W 123°23'0 0.0
2017-Sep-24 04:58N 48°25' W 123°23'0 0.0
2017-Sep-24 04:28N 48°25' W 123°23'0 0.0
2017-Sep-24 03:58N 48°25' W 123°23'0 0.0
2017-Sep-24 03:28N 48°25' W 123°23'0 0.0
2017-Sep-24 02:58N 48°25' W 123°23'0 0.0
2017-Sep-24 02:28N 48°25' W 123°23'0 0.0
2017-Sep-24 01:58N 48°25' W 123°23'0 0.0
2017-Sep-24 01:28N 48°25' W 123°23'0 0.0
2017-Sep-24 00:59N 48°25' W 123°23'1 3.1
2017-Sep-24 00:30N 48°24' W 123°25'612.2
2017-Sep-24 00:01N 48°18' W 123°25'1019.4
2017-Sep-23 23:30N 48°14' W 123°39'1122.4
2017-Sep-23 23:00N 48°14' W 123°55'1122.5
2017-Sep-23 22:30N 48°18' W 124°11'1121.8
2017-Sep-23 22:00N 48°23' W 124°26'1020.6
2017-Sep-23 21:30N 48°27' W 124°40'1019.8
2017-Sep-23 21:00N 48°29' W 124°55'1019.6
2017-Sep-23 20:30N 48°29' W 125°09'1019.3
2017-Sep-23 20:01N 48°34' W 125°22'17021.2
2017-Sep-23 12:00N 50°24' W 128°42'32214.0 290 / 101017.0 0.3 13.4 14.0
2017-Sep-22 13:00N 55°24' W 131°54'224 4.5 160 / 131018.0 5.4 10.8 18.0
2017-Sep-20 10:49N 58°19' W 136°10'517.3
2017-Sep-20 10:30N 58°20' W 136°00'918.7
2017-Sep-20 10:00N 58°18' W 135°43'1019.3
2017-Sep-20 09:30N 58°14' W 135°26'253 8.5
2017-Sep-19 03:47N 54°30' W 131°56'518.3
2017-Sep-19 03:30N 54°27' W 131°48'917.4
2017-Sep-19 03:01N 54°25' W 131°34'816.5
2017-Sep-19 02:30N 54°23' W 131°20'917.1
2017-Sep-19 02:00N 54°20' W 131°06'1019.9
2017-Sep-19 01:30N 54°11' W 131°01'1019.3
2017-Sep-19 01:00N 54°01' W 130°58'918.9
2017-Sep-19 00:30N 53°52' W 130°56'1019.2
2017-Sep-19 00:01N 53°42' W 130°53'918.8
2017-Sep-18 23:30N 53°33' W 130°51'1019.1
2017-Sep-18 22:59N 53°23' W 130°47'1319.1
2017-Sep-18 22:18N 53°11' W 130°40'25320.6
2017-Sep-18 10:00N 49°34' W 127°10'1121.7
2017-Sep-18 09:30N 49°27' W 126°57'1122.3
2017-Sep-18 09:00N 49°20' W 126°44'1122.6
2017-Sep-18 08:30N 49°13' W 126°30'1122.8
2017-Sep-18 08:00N 49°06' W 126°17'1122.9
2017-Sep-18 07:30N 48°59' W 126°03'1122.9
2017-Sep-18 07:01N 48°52' W 125°49'1223.0
2017-Sep-18 06:30N 48°45' W 125°36'1223.4
2017-Sep-18 06:01N 48°38' W 125°22'1122.9
2017-Sep-18 05:31N 48°32' W 125°07'1122.7
2017-Sep-18 05:01N 48°31' W 124°50'1223.2
2017-Sep-18 04:30N 48°28' W 124°33'1223.5
2017-Sep-18 04:01N 48°23' W 124°16'1223.6
2017-Sep-18 03:31N 48°19' W 124°00'1223.8
2017-Sep-18 03:01N 48°16' W 123°43'1223.4
2017-Sep-18 02:30N 48°12' W 123°26'713.0
2017-Sep-18 02:00N 48°10' W 123°17'1020.9
2017-Sep-18 01:30N 48°12' W 123°02'1121.5
2017-Sep-18 00:59N 48°10' W 122°45'1020.4
2017-Sep-18 00:30N 48°02' W 122°37'1121.9
2017-Sep-18 00:01N 47°53' W 122°28'1121.9
2017-Sep-17 23:31N 47°42' W 122°27'5 9.7
2017-Sep-17 22:59N 47°38' W 122°23'0 0.1
2017-Sep-17 22:29N 47°38' W 122°23'0 0.0
2017-Sep-17 21:59N 47°38' W 122°23'0 0.0
2017-Sep-17 21:29N 47°38' W 122°23'0 0.0
2017-Sep-17 20:59N 47°38' W 122°23'0 0.0
2017-Sep-17 20:29N 47°38' W 122°23'0 0.0
2017-Sep-17 19:59N 47°38' W 122°23'0 0.0
2017-Sep-17 19:29N 47°38' W 122°23'0 0.0
2017-Sep-17 18:59N 47°38' W 122°23'0 0.0
2017-Sep-17 18:30N 47°38' W 122°23'0 0.0
2017-Sep-17 17:59N 47°38' W 122°23'0 0.0
2017-Sep-17 17:29N 47°38' W 122°23'0 0.0
2017-Sep-17 16:59N 47°38' W 122°23'0 0.0
2017-Sep-17 16:30N 47°38' W 122°23'0 0.0
2017-Sep-17 15:59N 47°38' W 122°23'0 0.0
2017-Sep-17 15:29N 47°38' W 122°23'0 0.0
2017-Sep-17 14:59N 47°38' W 122°23'0 0.0
2017-Sep-17 14:29N 47°38' W 122°23'0 0.0
2017-Sep-17 13:59N 47°38' W 122°23'0 0.0
2017-Sep-17 13:29N 47°38' W 122°23'0 0.2
2017-Sep-17 13:01N 47°38' W 122°23'2 3.6
2017-Sep-17 12:31N 47°38' W 122°26'612.0
2017-Sep-17 12:01N 47°44' W 122°27'714.0
2017-Sep-17 11:31N 47°51' W 122°28'713.9
2017-Sep-17 11:00N 47°57' W 122°33'815.4
2017-Sep-17 10:30N 48°03' W 122°39'815.2
2017-Sep-17 10:00N 48°10' W 122°46'612.7
2017-Sep-17 09:30N 48°11' W 122°55'611.3
2017-Sep-17 09:01N 48°12' W 123°03'714.3
2017-Sep-17 08:30N 48°11' W 123°14'714.7
2017-Sep-17 08:01N 48°10' W 123°25'815.2
2017-Sep-17 07:30N 48°17' W 123°28'713.2
2017-Sep-17 07:00N 48°23' W 123°25'2 3.5
2017-Sep-17 06:29N 48°25' W 123°23'0 0.0
2017-Sep-17 05:59N 48°25' W 123°23'0 0.0
2017-Sep-17 05:29N 48°25' W 123°23'0 0.0
2017-Sep-17 04:59N 48°25' W 123°23'0 0.0
2017-Sep-17 04:29N 48°25' W 123°23'0 0.0
2017-Sep-17 03:59N 48°25' W 123°23'0 0.0
2017-Sep-17 03:29N 48°25' W 123°23'0 0.0
2017-Sep-17 02:59N 48°25' W 123°23'0 0.0
2017-Sep-17 02:29N 48°25' W 123°23'0 0.0
2017-Sep-17 01:59N 48°25' W 123°23'0 0.0
2017-Sep-17 01:29N 48°25' W 123°23'0 0.0
2017-Sep-17 01:01N 48°25' W 123°23'2 3.6
2017-Sep-17 00:30N 48°24' W 123°25'713.4
2017-Sep-17 00:01N 48°17' W 123°26'1019.5
2017-Sep-16 23:31N 48°14' W 123°40'1121.4
2017-Sep-16 23:00N 48°14' W 123°56'1122.0
2017-Sep-16 22:30N 48°19' W 124°11'1122.3
2017-Sep-16 22:00N 48°23' W 124°26'1020.2
2017-Sep-16 21:30N 48°28' W 124°40'1019.2
2017-Sep-16 21:00N 48°29' W 124°54'1019.9
2017-Sep-16 20:31N 48°29' W 125°09'1019.2
2017-Sep-16 20:01N 48°34' W 125°22'1122.6
2017-Sep-16 19:31N 48°41' W 125°35'1122.2
2017-Sep-16 19:00N 48°48' W 125°48'1122.3
2017-Sep-16 18:31N 48°56' W 126°00'1122.1
2017-Sep-16 18:00N 49°03' W 126°13'1121.8
2017-Sep-16 17:30N 49°10' W 126°26'1121.8
2017-Sep-16 17:00N 49°17' W 126°39'1121.7
2017-Sep-16 16:31N 49°24' W 126°51'1121.8
2017-Sep-16 16:00N 49°31' W 127°04'1122.3
2017-Sep-16 15:30N 49°38' W 127°18'1322.5
2017-Sep-16 14:57N 49°44' W 127°35'1022.5
2017-Sep-16 14:30N 49°52' W 127°44'713.0
2017-Sep-16 14:00N 49°54' W 127°54'1636.9 350 / 131016.0 5.4 12.3 14.0
2017-Sep-16 13:34N 50°07' W 128°09'222.7
2017-Sep-16 13:29N 50°08' W 128°11'1122.7
2017-Sep-16 13:00N 50°15' W 128°24'1122.9
2017-Sep-16 12:30N 50°23' W 128°37'1122.6
2017-Sep-16 12:00N 50°30' W 128°50'1121.8
2017-Sep-16 11:30N 50°38' W 129°03'1121.2
2017-Sep-16 11:00N 50°45' W 129°15'1121.1
2017-Sep-16 10:30N 50°55' W 129°21'1121.5
2017-Sep-16 10:00N 51°05' W 129°26'1122.1
2017-Sep-16 09:30N 51°15' W 129°32'1222.0
2017-Sep-16 08:58N 51°27' W 129°39'1022.1
2017-Sep-16 08:30N 51°36' W 129°44'1122.6
2017-Sep-16 08:00N 51°47' W 129°50'1122.5
2017-Sep-16 07:30N 51°57' W 129°57'1222.4
2017-Sep-16 06:57N 52°09' W 130°04'1022.3
2017-Sep-16 06:30N 52°18' W 130°09'1122.1
2017-Sep-16 06:00N 52°29' W 130°15'1122.2
2017-Sep-16 05:30N 52°39' W 130°21'1122.1
2017-Sep-16 04:59N 52°50' W 130°28'2221.7
2017-Sep-16 03:59N 53°10' W 130°40'  
Track history (hours):
 
Tides and Currents Weather Stations Pressure Air Temp Water Temp Dewpoint Dewpoint Depression Visibility Wind Speed Wind Dir Waves Ship Positions

Oosterdam

Operator: Holland America Line

Last reported at 2017-Sep-26 03:30 UTC. Time now 2017-Sep-26 04:00 UTC.
Position N 49°17' W 123°07'.

Type: Passenger vessel. MMSI: 245417000.

Date/timePositionNaut miles runAvg speedWind from/ knotsBaromVisibWave heightAir tempDewpointWater temp
2017-Sep-26 03:30N 49°17' W 123°07'0 0.0
2017-Sep-26 03:00N 49°17' W 123°07'0 0.0
2017-Sep-26 02:30N 49°17' W 123°07'0 0.0
2017-Sep-26 02:00N 49°17' W 123°07'0 0.0
2017-Sep-26 01:30N 49°17' W 123°07'0 0.0
2017-Sep-26 01:00N 49°17' W 123°07'0 0.0
2017-Sep-26 00:30N 49°17' W 123°07'0 0.0
2017-Sep-26 00:00N 49°17' W 123°07'0 0.0
2017-Sep-25 23:30N 49°17' W 123°07'0 0.0
2017-Sep-25 23:00N 49°17' W 123°07'0 0.0
2017-Sep-25 22:30N 49°17' W 123°07'0 0.0
2017-Sep-25 22:00N 49°17' W 123°07'0 0.0
2017-Sep-25 21:30N 49°17' W 123°07'0 0.0
2017-Sep-25 21:00N 49°17' W 123°07'0 0.0
2017-Sep-25 20:30N 49°17' W 123°07'0 0.0
2017-Sep-25 20:00N 49°17' W 123°07'0 0.0
2017-Sep-25 19:30N 49°17' W 123°07'0 0.0
2017-Sep-25 19:00N 49°17' W 123°07'0 0.0
2017-Sep-25 18:30N 49°17' W 123°07'0 0.0
2017-Sep-25 18:00N 49°17' W 123°07'0 0.0
2017-Sep-25 17:30N 49°17' W 123°07'0 0.0
2017-Sep-25 17:00N 49°17' W 123°07'0 0.0
2017-Sep-25 16:30N 49°17' W 123°07'0 0.0
2017-Sep-25 16:00N 49°17' W 123°07'0 0.0
2017-Sep-25 15:30N 49°17' W 123°07'0 0.0
2017-Sep-25 15:00N 49°17' W 123°07'0 0.0
2017-Sep-25 14:30N 49°17' W 123°07'0 0.0
2017-Sep-25 14:00N 49°17' W 123°07'0 0.4
2017-Sep-25 13:30N 49°18' W 123°07'4 7.4
2017-Sep-25 13:01N 49°19' W 123°12'918.4
2017-Sep-25 12:31N 49°18' W 123°26'815.5
2017-Sep-25 12:01N 49°19' W 123°38'3 6.5
2017-Sep-25 11:31N 49°16' W 123°39'611.5
2017-Sep-25 11:01N 49°12' W 123°33'611.5
2017-Sep-25 10:31N 49°07' W 123°27'816.0
2017-Sep-25 10:00N 49°02' W 123°18'918.0
2017-Sep-25 09:30N 48°56' W 123°08'816.9
2017-Sep-25 09:00N 48°49' W 122°60'714.8
2017-Sep-25 08:30N 48°44' W 123°08'613.0
2017-Sep-25 08:00N 48°40' W 123°15'815.6
2017-Sep-25 07:30N 48°32' W 123°12'714.7
2017-Sep-25 07:00N 48°25' W 123°12'714.7
2017-Sep-25 06:30N 48°22' W 123°22'4 8.3
2017-Sep-25 06:00N 48°18' W 123°25'3 6.1
2017-Sep-25 05:30N 48°16' W 123°27'2 3.2
2017-Sep-25 05:00N 48°14' W 123°28'2 3.4
2017-Sep-25 04:30N 48°13' W 123°27'2 3.3
2017-Sep-25 04:00N 48°12' W 123°25'5 9.7
2017-Sep-25 03:31N 48°10' W 123°18'918.3
2017-Sep-25 03:00N 48°13' W 123°05'918.5
2017-Sep-25 02:31N 48°12' W 122°51'917.1
2017-Sep-25 02:00N 48°08' W 122°40'917.6
2017-Sep-25 01:30N 47°59' W 122°36'917.4
2017-Sep-25 01:00N 47°52' W 122°28'918.8
2017-Sep-25 00:30N 47°43' W 122°27'612.0
2017-Sep-25 00:01N 47°37' W 122°23'0 0.7
2017-Sep-24 23:30N 47°38' W 122°23'0 0.0
2017-Sep-24 23:00N 47°38' W 122°23'0 0.0
2017-Sep-24 22:30N 47°38' W 122°23'0 0.0
2017-Sep-24 22:00N 47°38' W 122°23'0 0.0
2017-Sep-24 21:30N 47°38' W 122°23'0 0.0
2017-Sep-24 21:00N 47°38' W 122°23'0 0.0
2017-Sep-24 20:29N 47°38' W 122°23'0 0.0
2017-Sep-24 20:00N 47°38' W 122°23'0 0.0
2017-Sep-24 19:30N 47°38' W 122°23'0 0.0
2017-Sep-24 19:00N 47°38' W 122°23'0 0.0
2017-Sep-24 18:30N 47°38' W 122°23'0 0.0
2017-Sep-24 18:00N 47°38' W 122°23'0 0.0
2017-Sep-24 17:30N 47°38' W 122°23'0 0.0
2017-Sep-24 17:00N 47°38' W 122°23'0 0.0
2017-Sep-24 16:30N 47°38' W 122°23'0 0.0
2017-Sep-24 16:00N 47°38' W 122°23'0 0.0
2017-Sep-24 15:30N 47°38' W 122°23'0 0.0
2017-Sep-24 15:00N 47°38' W 122°23'0 0.0
2017-Sep-24 14:30N 47°38' W 122°23'0 0.0
2017-Sep-24 14:00N 47°38' W 122°23'0 0.0
2017-Sep-24 13:30N 47°38' W 122°23'0 0.3
2017-Sep-24 13:01N 47°38' W 122°23'2 4.7
2017-Sep-24 12:31N 47°38' W 122°27'713.3
2017-Sep-24 12:01N 47°45' W 122°27'714.5
2017-Sep-24 11:31N 47°52' W 122°29'713.7
2017-Sep-24 11:01N 47°57' W 122°34'714.0
2017-Sep-24 10:30N 48°04' W 122°39'713.7
2017-Sep-24 10:00N 48°09' W 122°45'715.1
2017-Sep-24 09:30N 48°11' W 122°56'815.4
2017-Sep-24 09:00N 48°12' W 123°08'613.0
2017-Sep-24 08:30N 48°11' W 123°17'612.6
2017-Sep-24 08:00N 48°11' W 123°27'611.8
2017-Sep-24 07:30N 48°16' W 123°29'815.1
2017-Sep-24 07:00N 48°23' W 123°25'2 3.6
2017-Sep-24 06:28N 48°25' W 123°23'0 0.0
2017-Sep-24 05:58N 48°25' W 123°23'0 0.0
2017-Sep-24 05:28N 48°25' W 123°23'0 0.0
2017-Sep-24 04:58N 48°25' W 123°23'0 0.0
2017-Sep-24 04:28N 48°25' W 123°23'0 0.0
2017-Sep-24 03:58N 48°25' W 123°23'0 0.0
2017-Sep-24 03:28N 48°25' W 123°23'0 0.0
2017-Sep-24 02:58N 48°25' W 123°23'0 0.0
2017-Sep-24 02:28N 48°25' W 123°23'0 0.0
2017-Sep-24 01:58N 48°25' W 123°23'0 0.0
2017-Sep-24 01:28N 48°25' W 123°23'0 0.0
2017-Sep-24 00:59N 48°25' W 123°23'1 3.1
2017-Sep-24 00:30N 48°24' W 123°25'612.2
2017-Sep-24 00:01N 48°18' W 123°25'1019.4
2017-Sep-23 23:30N 48°14' W 123°39'1122.4
2017-Sep-23 23:00N 48°14' W 123°55'1122.5
2017-Sep-23 22:30N 48°18' W 124°11'1121.8
2017-Sep-23 22:00N 48°23' W 124°26'1020.6
2017-Sep-23 21:30N 48°27' W 124°40'1019.8
2017-Sep-23 21:00N 48°29' W 124°55'1019.6
2017-Sep-23 20:30N 48°29' W 125°09'1019.3
2017-Sep-23 20:01N 48°34' W 125°22'17021.2
2017-Sep-23 12:00N 50°24' W 128°42'32214.0 290 / 101017.0 0.3 13.4 14.0
2017-Sep-22 13:00N 55°24' W 131°54'224 4.5 160 / 131018.0 5.4 10.8 18.0
2017-Sep-20 10:49N 58°19' W 136°10'517.3
2017-Sep-20 10:30N 58°20' W 136°00'918.7
2017-Sep-20 10:00N 58°18' W 135°43'1019.3
2017-Sep-20 09:30N 58°14' W 135°26'253 8.5
2017-Sep-19 03:47N 54°30' W 131°56'518.3
2017-Sep-19 03:30N 54°27' W 131°48'917.4
2017-Sep-19 03:01N 54°25' W 131°34'816.5
2017-Sep-19 02:30N 54°23' W 131°20'917.1
2017-Sep-19 02:00N 54°20' W 131°06'1019.9
2017-Sep-19 01:30N 54°11' W 131°01'1019.3
2017-Sep-19 01:00N 54°01' W 130°58'918.9
2017-Sep-19 00:30N 53°52' W 130°56'1019.2
2017-Sep-19 00:01N 53°42' W 130°53'918.8
2017-Sep-18 23:30N 53°33' W 130°51'1019.1
2017-Sep-18 22:59N 53°23' W 130°47'1319.1
2017-Sep-18 22:18N 53°11' W 130°40'25320.6
2017-Sep-18 10:00N 49°34' W 127°10'1121.7
2017-Sep-18 09:30N 49°27' W 126°57'1122.3
2017-Sep-18 09:00N 49°20' W 126°44'1122.6
2017-Sep-18 08:30N 49°13' W 126°30'1122.8
2017-Sep-18 08:00N 49°06' W 126°17'1122.9
2017-Sep-18 07:30N 48°59' W 126°03'1122.9
2017-Sep-18 07:01N 48°52' W 125°49'1223.0
2017-Sep-18 06:30N 48°45' W 125°36'1223.4
2017-Sep-18 06:01N 48°38' W 125°22'1122.9
2017-Sep-18 05:31N 48°32' W 125°07'1122.7
2017-Sep-18 05:01N 48°31' W 124°50'1223.2
2017-Sep-18 04:30N 48°28' W 124°33'1223.5
2017-Sep-18 04:01N 48°23' W 124°16'1223.6
2017-Sep-18 03:31N 48°19' W 124°00'1223.8
2017-Sep-18 03:01N 48°16' W 123°43'1223.4
2017-Sep-18 02:30N 48°12' W 123°26'713.0
2017-Sep-18 02:00N 48°10' W 123°17'1020.9
2017-Sep-18 01:30N 48°12' W 123°02'1121.5
2017-Sep-18 00:59N 48°10' W 122°45'1020.4
2017-Sep-18 00:30N 48°02' W 122°37'1121.9
2017-Sep-18 00:01N 47°53' W 122°28'1121.9
2017-Sep-17 23:31N 47°42' W 122°27'5 9.7
2017-Sep-17 22:59N 47°38' W 122°23'0 0.1
2017-Sep-17 22:29N 47°38' W 122°23'0 0.0
2017-Sep-17 21:59N 47°38' W 122°23'0 0.0
2017-Sep-17 21:29N 47°38' W 122°23'0 0.0
2017-Sep-17 20:59N 47°38' W 122°23'0 0.0
2017-Sep-17 20:29N 47°38' W 122°23'0 0.0
2017-Sep-17 19:59N 47°38' W 122°23'0 0.0
2017-Sep-17 19:29N 47°38' W 122°23'0 0.0
2017-Sep-17 18:59N 47°38' W 122°23'0 0.0
2017-Sep-17 18:30N 47°38' W 122°23'0 0.0
2017-Sep-17 17:59N 47°38' W 122°23'0 0.0
2017-Sep-17 17:29N 47°38' W 122°23'0 0.0
2017-Sep-17 16:59N 47°38' W 122°23'0 0.0
2017-Sep-17 16:30N 47°38' W 122°23'0 0.0
2017-Sep-17 15:59N 47°38' W 122°23'0 0.0
2017-Sep-17 15:29N 47°38' W 122°23'0 0.0
2017-Sep-17 14:59N 47°38' W 122°23'0 0.0
2017-Sep-17 14:29N 47°38' W 122°23'0 0.0
2017-Sep-17 13:59N 47°38' W 122°23'0 0.0
2017-Sep-17 13:29N 47°38' W 122°23'0 0.2
2017-Sep-17 13:01N 47°38' W 122°23'2 3.6
2017-Sep-17 12:31N 47°38' W 122°26'612.0
2017-Sep-17 12:01N 47°44' W 122°27'714.0
2017-Sep-17 11:31N 47°51' W 122°28'713.9
2017-Sep-17 11:00N 47°57' W 122°33'815.4
2017-Sep-17 10:30N 48°03' W 122°39'815.2
2017-Sep-17 10:00N 48°10' W 122°46'612.7
2017-Sep-17 09:30N 48°11' W 122°55'611.3
2017-Sep-17 09:01N 48°12' W 123°03'714.3
2017-Sep-17 08:30N 48°11' W 123°14'714.7
2017-Sep-17 08:01N 48°10' W 123°25'815.2
2017-Sep-17 07:30N 48°17' W 123°28'713.2
2017-Sep-17 07:00N 48°23' W 123°25'2 3.5
2017-Sep-17 06:29N 48°25' W 123°23'0 0.0
2017-Sep-17 05:59N 48°25' W 123°23'0 0.0
2017-Sep-17 05:29N 48°25' W 123°23'0 0.0
2017-Sep-17 04:59N 48°25' W 123°23'0 0.0
2017-Sep-17 04:29N 48°25' W 123°23'0 0.0
2017-Sep-17 03:59N 48°25' W 123°23'0 0.0
2017-Sep-17 03:29N 48°25' W 123°23'0 0.0
2017-Sep-17 02:59N 48°25' W 123°23'0 0.0
2017-Sep-17 02:29N 48°25' W 123°23'0 0.0
2017-Sep-17 01:59N 48°25' W 123°23'0 0.0
2017-Sep-17 01:29N 48°25' W 123°23'0 0.0
2017-Sep-17 01:01N 48°25' W 123°23'2 3.6
2017-Sep-17 00:30N 48°24' W 123°25'713.4
2017-Sep-17 00:01N 48°17' W 123°26'1019.5
2017-Sep-16 23:31N 48°14' W 123°40'1121.4
2017-Sep-16 23:00N 48°14' W 123°56'1122.0
2017-Sep-16 22:30N 48°19' W 124°11'1122.3
2017-Sep-16 22:00N 48°23' W 124°26'1020.2
2017-Sep-16 21:30N 48°28' W 124°40'1019.2
2017-Sep-16 21:00N 48°29' W 124°54'1019.9
2017-Sep-16 20:31N 48°29' W 125°09'1019.2
2017-Sep-16 20:01N 48°34' W 125°22'1122.6
2017-Sep-16 19:31N 48°41' W 125°35'1122.2
2017-Sep-16 19:00N 48°48' W 125°48'1122.3
2017-Sep-16 18:31N 48°56' W 126°00'1122.1
2017-Sep-16 18:00N 49°03' W 126°13'1121.8
2017-Sep-16 17:30N 49°10' W 126°26'1121.8
2017-Sep-16 17:00N 49°17' W 126°39'1121.7
2017-Sep-16 16:31N 49°24' W 126°51'1121.8
2017-Sep-16 16:00N 49°31' W 127°04'1122.3
2017-Sep-16 15:30N 49°38' W 127°18'1322.5
2017-Sep-16 14:57N 49°44' W 127°35'1022.5
2017-Sep-16 14:30N 49°52' W 127°44'713.0
2017-Sep-16 14:00N 49°54' W 127°54'1636.9 350 / 131016.0 5.4 12.3 14.0
2017-Sep-16 13:34N 50°07' W 128°09'222.7
2017-Sep-16 13:29N 50°08' W 128°11'1122.7
2017-Sep-16 13:00N 50°15' W 128°24'1122.9
2017-Sep-16 12:30N 50°23' W 128°37'1122.6
2017-Sep-16 12:00N 50°30' W 128°50'1121.8
2017-Sep-16 11:30N 50°38' W 129°03'1121.2
2017-Sep-16 11:00N 50°45' W 129°15'1121.1
2017-Sep-16 10:30N 50°55' W 129°21'1121.5
2017-Sep-16 10:00N 51°05' W 129°26'1122.1
2017-Sep-16 09:30N 51°15' W 129°32'1222.0
2017-Sep-16 08:58N 51°27' W 129°39'1022.1
2017-Sep-16 08:30N 51°36' W 129°44'1122.6
2017-Sep-16 08:00N 51°47' W 129°50'1122.5
2017-Sep-16 07:30N 51°57' W 129°57'1222.4
2017-Sep-16 06:57N 52°09' W 130°04'1022.3
2017-Sep-16 06:30N 52°18' W 130°09'1122.1
2017-Sep-16 06:00N 52°29' W 130°15'1122.2
2017-Sep-16 05:30N 52°39' W 130°21'1122.1
2017-Sep-16 04:59N 52°50' W 130°28'2221.7
2017-Sep-16 03:59N 53°10' W 130°40'  

Dump ship's entire track history